createdAt,value
2018-08-13T00:00:12.642Z,888.40
2018-08-13T00:01:12.637Z,888.39
2018-08-13T00:02:12.628Z,888.31
2018-08-13T00:03:12.622Z,888.30
2018-08-13T00:04:12.614Z,888.27
2018-08-13T00:05:12.604Z,888.22
2018-08-13T00:06:12.597Z,888.27
2018-08-13T00:07:12.588Z,888.27
2018-08-13T00:08:12.581Z,888.25
2018-08-13T00:09:12.571Z,888.25
2018-08-13T00:10:12.562Z,888.20
2018-08-13T00:11:12.560Z,888.21
2018-08-13T00:12:12.551Z,888.22
2018-08-13T00:13:12.543Z,888.21
2018-08-13T00:14:12.538Z,888.19
2018-08-13T00:15:12.532Z,888.20
2018-08-13T00:16:12.520Z,888.16
2018-08-13T00:17:12.510Z,888.22
2018-08-13T00:18:12.514Z,888.18
2018-08-13T00:19:12.497Z,888.15
2018-08-13T00:20:12.486Z,888.15
2018-08-13T00:21:12.480Z,888.14
2018-08-13T00:22:12.476Z,888.16
2018-08-13T00:23:12.461Z,888.13
2018-08-13T00:24:12.460Z,888.16
2018-08-13T00:25:12.445Z,888.15
2018-08-13T00:26:12.440Z,888.20
2018-08-13T00:27:12.430Z,888.21
2018-08-13T00:28:12.428Z,888.21
2018-08-13T00:29:12.413Z,888.22
2018-08-13T00:30:12.411Z,888.21
2018-08-13T00:31:12.397Z,888.18
2018-08-13T00:32:12.394Z,888.20
2018-08-13T00:33:12.386Z,888.14
2018-08-13T00:34:12.379Z,888.17
2018-08-13T00:35:12.369Z,888.14
2018-08-13T00:36:12.358Z,888.15
2018-08-13T00:37:12.353Z,888.15
2018-08-13T00:38:12.349Z,888.12
2018-08-13T00:39:12.340Z,888.08
2018-08-13T00:40:12.330Z,888.08
2018-08-13T00:41:12.328Z,888.05
2018-08-13T00:42:12.319Z,888.06
2018-08-13T00:43:12.312Z,888.04
2018-08-13T00:44:12.297Z,888.04
2018-08-13T00:45:12.291Z,888.00
2018-08-13T00:46:12.288Z,888.05
2018-08-13T00:47:12.277Z,888.03
2018-08-13T00:48:12.274Z,888.01
2018-08-13T00:49:12.259Z,888.00
2018-08-13T00:50:12.255Z,888.01
2018-08-13T00:51:12.248Z,888.00
2018-08-13T00:52:12.235Z,888.02
2018-08-13T00:53:12.234Z,888.00
2018-08-13T00:54:12.219Z,888.00
2018-08-13T00:55:12.216Z,888.03
2018-08-13T00:56:12.204Z,888.01
2018-08-13T00:57:12.196Z,887.97
2018-08-13T00:58:12.196Z,887.96
2018-08-13T00:59:12.201Z,888.00
2018-08-13T01:00:12.178Z,887.97
2018-08-13T01:01:12.170Z,887.98
2018-08-13T01:02:12.159Z,887.98
2018-08-13T01:03:12.148Z,887.99
2018-08-13T01:04:12.144Z,887.99
2018-08-13T01:05:12.134Z,887.99
2018-08-13T01:06:12.121Z,888.00
2018-08-13T01:07:12.119Z,887.93
2018-08-13T01:08:12.109Z,887.93
2018-08-13T01:09:12.103Z,887.96
2018-08-13T01:10:12.092Z,887.91
2018-08-13T01:11:12.087Z,887.91
2018-08-13T01:12:12.076Z,887.88
2018-08-13T01:13:12.074Z,887.87
2018-08-13T01:14:12.067Z,887.82
2018-08-13T01:15:12.055Z,887.80
2018-08-13T01:16:12.045Z,887.79
2018-08-13T01:17:12.033Z,887.81
2018-08-13T01:18:12.037Z,887.83
2018-08-13T01:19:12.028Z,887.79
2018-08-13T01:20:12.016Z,887.78
2018-08-13T01:21:12.002Z,887.77
2018-08-13T01:22:11.998Z,887.73
2018-08-13T01:23:11.997Z,887.71
2018-08-13T01:24:11.978Z,887.66
2018-08-13T01:25:11.976Z,887.65
2018-08-13T01:26:11.967Z,887.63
2018-08-13T01:27:11.963Z,887.65
2018-08-13T01:28:11.951Z,887.61
2018-08-13T01:29:11.947Z,887.63
2018-08-13T01:30:11.935Z,887.61
2018-08-13T01:31:11.925Z,887.57
2018-08-13T01:32:11.917Z,887.56
2018-08-13T01:33:11.911Z,887.52
2018-08-13T01:34:11.902Z,887.48
2018-08-13T01:35:11.896Z,887.48
2018-08-13T01:36:11.880Z,887.48
2018-08-13T01:37:11.876Z,887.50
2018-08-13T01:38:11.872Z,887.50
2018-08-13T01:39:11.864Z,887.50
2018-08-13T01:40:11.853Z,887.47
2018-08-13T01:41:11.853Z,887.51
2018-08-13T01:42:11.844Z,887.46
2018-08-13T01:43:11.829Z,887.50
2018-08-13T01:44:11.823Z,887.48
2018-08-13T01:45:11.819Z,887.49
2018-08-13T01:46:11.811Z,887.46
2018-08-13T01:47:11.803Z,887.41
2018-08-13T01:48:11.789Z,887.36
2018-08-13T01:49:11.787Z,887.31
2018-08-13T01:50:11.773Z,887.35
2018-08-13T01:51:11.768Z,887.36
2018-08-13T01:52:11.760Z,887.33
2018-08-13T01:53:11.749Z,887.35
2018-08-13T01:54:11.742Z,887.40
2018-08-13T01:55:11.736Z,887.41
2018-08-13T01:56:11.728Z,887.41
2018-08-13T01:57:11.720Z,887.38
2018-08-13T01:58:11.711Z,887.36
2018-08-13T01:59:11.703Z,887.38
2018-08-13T02:00:11.707Z,887.36
2018-08-13T02:01:11.684Z,887.33
2018-08-13T02:02:11.680Z,887.32
2018-08-13T02:03:11.672Z,887.29
2018-08-13T02:04:11.664Z,887.29
2018-08-13T02:05:11.656Z,887.24
2018-08-13T02:06:11.649Z,887.19
2018-08-13T02:07:11.642Z,887.21
2018-08-13T02:08:11.631Z,887.20
2018-08-13T02:09:11.627Z,887.22
2018-08-13T02:10:11.622Z,887.23
2018-08-13T02:11:11.610Z,887.21
2018-08-13T02:12:11.594Z,887.24
2018-08-13T02:13:11.594Z,887.27
2018-08-13T02:14:11.588Z,887.27
2018-08-13T02:15:11.575Z,887.28
2018-08-13T02:16:11.564Z,887.28
2018-08-13T02:17:11.555Z,887.27
2018-08-13T02:18:11.545Z,887.33
2018-08-13T02:19:11.543Z,887.34
2018-08-13T02:20:11.530Z,887.32
2018-08-13T02:21:11.526Z,887.32
2018-08-13T02:22:11.520Z,887.40
2018-08-13T02:23:11.503Z,887.42
2018-08-13T02:24:11.544Z,887.38
2018-08-13T02:25:11.496Z,887.38
2018-08-13T02:26:11.484Z,887.43
2018-08-13T02:27:11.475Z,887.42
2018-08-13T02:28:11.468Z,887.40
2018-08-13T02:29:11.463Z,887.37
2018-08-13T02:30:11.452Z,887.43
2018-08-13T02:31:11.449Z,887.44
2018-08-13T02:32:11.436Z,887.46
2018-08-13T02:33:11.428Z,887.49
2018-08-13T02:34:11.430Z,887.50
2018-08-13T02:35:11.415Z,887.51
2018-08-13T02:36:11.405Z,887.57
2018-08-13T02:37:11.399Z,887.60
2018-08-13T02:38:11.388Z,887.61
2018-08-13T02:39:11.501Z,887.64
2018-08-13T02:40:11.369Z,887.65
2018-08-13T02:41:11.365Z,887.65
2018-08-13T02:42:11.356Z,887.67
2018-08-13T02:43:11.346Z,887.66
2018-08-13T02:44:11.337Z,887.70
2018-08-13T02:45:11.334Z,887.68
2018-08-13T02:46:11.325Z,887.70
2018-08-13T02:47:11.314Z,887.68
2018-08-13T02:48:11.313Z,887.67
2018-08-13T02:49:11.299Z,887.68
2018-08-13T02:50:11.293Z,887.68
2018-08-13T02:51:11.281Z,887.65
2018-08-13T02:52:11.277Z,887.62
2018-08-13T02:53:11.265Z,887.61
2018-08-13T02:54:11.260Z,887.64
2018-08-13T02:55:11.255Z,887.64
2018-08-13T02:56:11.241Z,887.63
2018-08-13T02:57:11.232Z,887.66
2018-08-13T02:58:11.317Z,887.61
2018-08-13T02:59:11.224Z,887.61
2018-08-13T03:00:11.206Z,887.56
2018-08-13T03:01:11.204Z,887.53
2018-08-13T03:02:11.197Z,887.58
2018-08-13T03:03:11.189Z,887.57
2018-08-13T03:04:11.189Z,887.59
2018-08-13T03:05:11.175Z,887.62
2018-08-13T03:06:11.160Z,887.59
2018-08-13T03:07:11.157Z,887.56
2018-08-13T03:08:11.140Z,887.58
2018-08-13T03:09:11.137Z,887.55
2018-08-13T03:10:11.125Z,887.53
2018-08-13T03:11:11.121Z,887.53
2018-08-13T03:12:11.111Z,887.55
2018-08-13T03:13:11.105Z,887.53
2018-08-13T03:14:11.102Z,887.53
2018-08-13T03:15:11.090Z,887.47
2018-08-13T03:16:11.076Z,887.48
2018-08-13T03:17:11.070Z,887.48
2018-08-13T03:18:11.069Z,887.48
2018-08-13T03:19:11.058Z,887.46
2018-08-13T03:20:11.045Z,887.50
2018-08-13T03:21:11.038Z,887.47
2018-08-13T03:22:11.031Z,887.44
2018-08-13T03:23:11.020Z,887.38
2018-08-13T03:24:11.008Z,887.43
2018-08-13T03:25:11.002Z,887.41
2018-08-13T03:26:10.994Z,887.43
2018-08-13T03:27:10.995Z,887.41
2018-08-13T03:28:10.978Z,887.43
2018-08-13T03:29:10.976Z,887.47
2018-08-13T03:30:11.000Z,887.47
2018-08-13T03:31:10.950Z,887.52
2018-08-13T03:32:10.947Z,887.50
2018-08-13T03:33:10.939Z,887.47
2018-08-13T03:34:10.932Z,887.43
2018-08-13T03:35:10.923Z,887.40
2018-08-13T03:36:10.913Z,887.39
2018-08-13T03:37:10.904Z,887.36
2018-08-13T03:38:10.892Z,887.33
2018-08-13T03:39:10.891Z,887.32
2018-08-13T03:40:10.889Z,887.28
2018-08-13T03:41:10.875Z,887.24
2018-08-13T03:42:10.864Z,887.20
2018-08-13T03:43:10.855Z,887.21
2018-08-13T03:44:10.847Z,887.17
2018-08-13T03:45:10.839Z,887.21
2018-08-13T03:46:10.832Z,887.22
2018-08-13T03:47:10.821Z,887.21
2018-08-13T03:48:10.814Z,887.24
2018-08-13T03:49:10.802Z,887.19
2018-08-13T03:50:10.801Z,887.19
2018-08-13T03:51:10.791Z,887.22
2018-08-13T03:52:10.779Z,887.19
2018-08-13T03:53:10.768Z,887.24
2018-08-13T03:54:10.758Z,887.23
2018-08-13T03:55:10.753Z,887.21
2018-08-13T03:56:10.746Z,887.21
2018-08-13T03:57:10.734Z,887.12
2018-08-13T03:58:10.727Z,887.13
2018-08-13T03:59:10.725Z,887.11
2018-08-13T04:00:10.707Z,887.14
2018-08-13T04:01:10.704Z,887.14
2018-08-13T04:02:10.689Z,887.08
2018-08-13T04:03:10.686Z,887.10
2018-08-13T04:04:10.682Z,887.11
2018-08-13T04:05:10.670Z,887.09
2018-08-13T04:06:10.660Z,887.13
2018-08-13T04:07:10.655Z,887.08
2018-08-13T04:08:10.645Z,887.11
2018-08-13T04:09:10.639Z,887.08
2018-08-13T04:10:10.619Z,887.11
2018-08-13T04:11:10.620Z,887.10
2018-08-13T04:12:10.611Z,887.12
2018-08-13T04:13:10.601Z,887.08
2018-08-13T04:14:10.592Z,887.02
2018-08-13T04:15:10.588Z,886.99
2018-08-13T04:16:10.576Z,886.98
2018-08-13T04:17:10.565Z,886.97
2018-08-13T04:18:10.562Z,886.86
2018-08-13T04:19:10.557Z,886.90
2018-08-13T04:20:10.550Z,886.90
2018-08-13T04:21:10.536Z,886.88
2018-08-13T04:22:10.520Z,886.90
2018-08-13T04:23:10.517Z,886.89
2018-08-13T04:24:10.505Z,886.86
2018-08-13T04:25:10.498Z,886.84
2018-08-13T04:26:10.490Z,886.82
2018-08-13T04:27:10.483Z,886.79
2018-08-13T04:28:10.472Z,886.76
2018-08-13T04:29:10.463Z,886.73
2018-08-13T04:30:10.453Z,886.69
2018-08-13T04:31:10.448Z,886.71
2018-08-13T04:32:10.441Z,886.69
2018-08-13T04:33:10.430Z,886.63
2018-08-13T04:34:10.425Z,886.64
2018-08-13T04:35:10.416Z,886.65
2018-08-13T04:36:10.406Z,886.60
2018-08-13T04:37:10.400Z,886.61
2018-08-13T04:38:10.390Z,886.58
2018-08-13T04:39:10.383Z,886.57
2018-08-13T04:40:10.369Z,886.54
2018-08-13T04:41:10.362Z,886.53
2018-08-13T04:42:10.350Z,886.54
2018-08-13T04:43:10.344Z,886.51
2018-08-13T04:44:10.338Z,886.54
2018-08-13T04:45:10.328Z,886.60
2018-08-13T04:46:10.318Z,886.57
2018-08-13T04:47:10.311Z,886.57
2018-08-13T04:48:10.303Z,886.61
2018-08-13T04:49:10.295Z,886.56
2018-08-13T04:50:10.284Z,886.56
2018-08-13T04:51:10.276Z,886.57
2018-08-13T04:52:10.313Z,886.55
2018-08-13T04:53:10.259Z,886.58
2018-08-13T04:54:10.253Z,886.47
2018-08-13T04:55:10.245Z,886.48
2018-08-13T04:56:10.233Z,886.52
2018-08-13T04:57:10.225Z,886.48
2018-08-13T04:58:10.212Z,886.50
2018-08-13T04:59:10.209Z,886.51
2018-08-13T05:00:10.199Z,886.55
2018-08-13T05:01:10.192Z,886.54
2018-08-13T05:02:10.182Z,886.55
2018-08-13T05:03:10.172Z,886.55
2018-08-13T05:04:10.164Z,886.52
2018-08-13T05:05:10.152Z,886.50
2018-08-13T05:06:10.149Z,886.48
2018-08-13T05:07:10.136Z,886.45
2018-08-13T05:08:10.130Z,886.53
2018-08-13T05:09:10.124Z,886.57
2018-08-13T05:10:10.111Z,886.51
2018-08-13T05:11:10.105Z,886.54
2018-08-13T05:12:10.099Z,886.50
2018-08-13T05:13:10.091Z,886.46
2018-08-13T05:14:10.079Z,886.45
2018-08-13T05:15:10.077Z,886.48
2018-08-13T05:16:10.063Z,886.44
2018-08-13T05:17:10.056Z,886.41
2018-08-13T05:18:10.048Z,886.41
2018-08-13T05:19:10.044Z,886.45
2018-08-13T05:20:10.032Z,886.46
2018-08-13T05:21:10.021Z,886.44
2018-08-13T05:22:10.010Z,886.47
2018-08-13T05:23:10.008Z,886.48
2018-08-13T05:24:10.037Z,886.47
2018-08-13T05:25:09.995Z,886.45
2018-08-13T05:26:09.976Z,886.48
2018-08-13T05:27:09.968Z,886.49
2018-08-13T05:28:09.963Z,886.53
2018-08-13T05:29:09.957Z,886.53
2018-08-13T05:30:09.962Z,886.58
2018-08-13T05:31:09.935Z,886.54
2018-08-13T05:32:09.930Z,886.56
2018-08-13T05:33:09.921Z,886.55
2018-08-13T05:34:09.908Z,886.62
2018-08-13T05:35:09.905Z,886.52
2018-08-13T05:36:09.897Z,886.52
2018-08-13T05:37:09.888Z,886.54
2018-08-13T05:38:09.916Z,886.55
2018-08-13T05:39:09.871Z,886.56
2018-08-13T05:40:09.858Z,886.63
2018-08-13T05:41:09.850Z,886.63
2018-08-13T05:42:09.841Z,886.61
2018-08-13T05:43:09.833Z,886.61
2018-08-13T05:44:09.825Z,886.60
2018-08-13T05:45:09.829Z,886.58
2018-08-13T05:46:09.811Z,886.63
2018-08-13T05:47:09.812Z,886.64
2018-08-13T05:48:09.789Z,886.65
2018-08-13T05:49:09.789Z,886.65
2018-08-13T05:50:09.776Z,886.70
2018-08-13T05:51:09.762Z,886.69
2018-08-13T05:52:09.759Z,886.70
2018-08-13T05:53:09.748Z,886.68
2018-08-13T05:54:09.740Z,886.69
2018-08-13T05:55:09.736Z,886.66
2018-08-13T05:56:09.726Z,886.72
2018-08-13T05:57:09.718Z,886.71
2018-08-13T05:58:09.707Z,886.70
2018-08-13T05:59:09.702Z,886.67
2018-08-13T06:00:09.692Z,886.67
2018-08-13T06:01:09.683Z,886.66
2018-08-13T06:02:09.675Z,886.63
2018-08-13T06:03:09.717Z,886.58
2018-08-13T06:04:09.658Z,886.57
2018-08-13T06:05:09.648Z,886.59
2018-08-13T06:06:09.640Z,886.60
2018-08-13T06:07:09.633Z,886.60
2018-08-13T06:08:09.623Z,886.57
2018-08-13T06:09:09.616Z,886.53
2018-08-13T06:10:09.615Z,886.49
2018-08-13T06:11:09.675Z,886.49
2018-08-13T06:12:09.589Z,886.46
2018-08-13T06:13:09.584Z,886.47
2018-08-13T06:14:09.575Z,886.48
2018-08-13T06:15:09.565Z,886.51
2018-08-13T06:16:09.562Z,886.48
2018-08-13T06:17:09.547Z,886.48
2018-08-13T06:18:09.556Z,886.48
2018-08-13T06:19:09.540Z,886.42
2018-08-13T06:20:09.529Z,886.43
2018-08-13T06:21:09.513Z,886.43
2018-08-13T06:22:09.509Z,886.38
2018-08-13T06:23:09.492Z,886.38
2018-08-13T06:24:09.553Z,886.31
2018-08-13T06:25:09.490Z,886.29
2018-08-13T06:26:09.474Z,886.35
2018-08-13T06:27:09.470Z,886.36
2018-08-13T06:28:09.513Z,886.36
2018-08-13T06:29:09.456Z,886.32
2018-08-13T06:30:09.507Z,886.34
2018-08-13T06:31:09.431Z,886.30
2018-08-13T06:32:09.431Z,886.32
2018-08-13T06:33:09.417Z,886.26
2018-08-13T06:34:09.411Z,886.22
2018-08-13T06:35:09.404Z,886.21
2018-08-13T06:36:09.395Z,886.26
2018-08-13T06:37:09.451Z,886.26
2018-08-13T06:38:09.376Z,886.28
2018-08-13T06:39:09.372Z,886.32
2018-08-13T06:40:09.360Z,886.32
2018-08-13T06:41:09.355Z,886.30
2018-08-13T06:42:09.349Z,886.30
2018-08-13T06:43:09.339Z,886.35
2018-08-13T06:44:09.327Z,886.40
2018-08-13T06:45:09.321Z,886.39
2018-08-13T06:46:09.317Z,886.43
2018-08-13T06:47:09.316Z,886.43
2018-08-13T06:48:09.296Z,886.39
2018-08-13T06:49:09.292Z,886.39
2018-08-13T06:50:09.286Z,886.41
2018-08-13T06:51:09.274Z,886.43
2018-08-13T06:52:09.268Z,886.44
2018-08-13T06:53:09.257Z,886.45
2018-08-13T06:54:09.250Z,886.54
2018-08-13T06:55:09.243Z,886.56
2018-08-13T06:56:09.234Z,886.54
2018-08-13T06:57:09.231Z,886.54
2018-08-13T06:58:09.219Z,886.54
2018-08-13T06:59:09.210Z,886.52
2018-08-13T07:00:09.213Z,886.58
2018-08-13T07:01:09.198Z,886.56
2018-08-13T07:02:09.195Z,886.60
2018-08-13T07:03:09.180Z,886.58
2018-08-13T07:04:09.176Z,886.58
2018-08-13T07:05:09.166Z,886.58
2018-08-13T07:06:09.196Z,886.53
2018-08-13T07:07:09.150Z,886.55
2018-08-13T07:08:09.143Z,886.56
2018-08-13T07:09:09.138Z,886.58
2018-08-13T07:10:09.127Z,886.58
2018-08-13T07:11:09.119Z,886.61
2018-08-13T07:12:09.113Z,886.60
2018-08-13T07:13:09.109Z,886.57
2018-08-13T07:14:09.100Z,886.58
2018-08-13T07:15:09.091Z,886.58
2018-08-13T07:16:09.081Z,886.58
2018-08-13T07:17:09.081Z,886.59
2018-08-13T07:18:09.072Z,886.56
2018-08-13T07:19:09.066Z,886.53
2018-08-13T07:20:09.059Z,886.49
2018-08-13T07:21:09.049Z,886.45
2018-08-13T07:22:09.123Z,886.39
2018-08-13T07:23:09.029Z,886.37
2018-08-13T07:24:09.029Z,886.38
2018-08-13T07:25:09.021Z,886.33
2018-08-13T07:26:09.016Z,886.31
2018-08-13T07:27:09.004Z,886.30
2018-08-13T07:28:09.022Z,886.29
2018-08-13T07:29:08.994Z,886.27
2018-08-13T07:30:08.993Z,886.24
2018-08-13T07:31:08.976Z,886.25
2018-08-13T07:32:08.971Z,886.19
2018-08-13T07:33:08.968Z,886.22
2018-08-13T07:34:08.957Z,886.21
2018-08-13T07:35:08.949Z,886.17
2018-08-13T07:36:08.948Z,886.15
2018-08-13T07:37:08.939Z,886.15
2018-08-13T07:38:08.930Z,886.13
2018-08-13T07:39:09.029Z,886.10
2018-08-13T07:40:08.921Z,886.08
2018-08-13T07:41:08.909Z,886.06
2018-08-13T07:42:08.908Z,885.98
2018-08-13T07:43:08.892Z,885.93
2018-08-13T07:44:08.895Z,885.92
2018-08-13T07:45:08.880Z,885.85
2018-08-13T07:46:08.874Z,885.88
2018-08-13T07:47:08.868Z,885.85
2018-08-13T07:48:08.864Z,885.81
2018-08-13T07:49:08.860Z,885.84
2018-08-13T07:50:08.851Z,885.84
2018-08-13T07:51:08.844Z,885.83
2018-08-13T07:52:08.841Z,885.79
2018-08-13T07:53:08.833Z,885.77
2018-08-13T07:54:08.828Z,885.82
2018-08-13T07:55:08.816Z,885.77
2018-08-13T07:56:08.812Z,885.77
2018-08-13T07:57:08.802Z,885.76
2018-08-13T07:58:08.799Z,885.73
2018-08-13T07:59:08.790Z,885.74
2018-08-13T08:00:08.857Z,885.71
2018-08-13T08:01:08.785Z,885.73
2018-08-13T08:02:08.779Z,885.72
2018-08-13T08:03:08.775Z,885.69
2018-08-13T08:04:08.760Z,885.70
2018-08-13T08:05:08.756Z,885.69
2018-08-13T08:06:08.757Z,885.69
2018-08-13T08:07:08.742Z,885.68
2018-08-13T08:08:08.739Z,885.65
2018-08-13T08:09:08.742Z,885.63
2018-08-13T08:10:08.726Z,885.66
2018-08-13T08:11:08.720Z,885.67
2018-08-13T08:12:08.711Z,885.67
2018-08-13T08:13:08.706Z,885.67
2018-08-13T08:14:08.703Z,885.66
2018-08-13T08:15:08.697Z,885.69
2018-08-13T08:16:08.693Z,885.71
2018-08-13T08:17:08.685Z,885.73
2018-08-13T08:18:08.685Z,885.71
2018-08-13T08:19:08.673Z,885.74
2018-08-13T08:20:08.669Z,885.70
2018-08-13T08:21:08.661Z,885.78
2018-08-13T08:22:08.657Z,885.74
2018-08-13T08:23:08.646Z,885.73
2018-08-13T08:24:08.640Z,885.77
2018-08-13T08:25:08.646Z,885.79
2018-08-13T08:26:08.631Z,885.79
2018-08-13T08:27:08.627Z,885.81
2018-08-13T08:28:08.621Z,885.84
2018-08-13T08:29:08.615Z,885.83
2018-08-13T08:30:08.614Z,885.83
2018-08-13T08:31:08.602Z,885.84
2018-08-13T08:32:08.597Z,885.83
2018-08-13T08:33:08.589Z,885.86
2018-08-13T08:34:08.583Z,885.80
2018-08-13T08:35:08.581Z,885.86
2018-08-13T08:36:08.574Z,885.81
2018-08-13T08:37:08.577Z,885.79
2018-08-13T08:38:08.565Z,885.77
2018-08-13T08:39:08.562Z,885.79
2018-08-13T08:40:08.555Z,885.80
2018-08-13T08:41:08.545Z,885.79
2018-08-13T08:42:08.545Z,885.76
2018-08-13T08:43:08.539Z,885.74
2018-08-13T08:44:08.529Z,885.68
2018-08-13T08:45:08.527Z,885.70
2018-08-13T08:46:08.516Z,885.69
2018-08-13T08:47:08.529Z,885.69
2018-08-13T08:48:08.506Z,885.64
2018-08-13T08:49:08.504Z,885.64
2018-08-13T08:50:08.498Z,885.62
2018-08-13T08:51:08.490Z,885.56
2018-08-13T08:52:08.489Z,885.57
2018-08-13T08:53:08.474Z,885.56
2018-08-13T08:54:08.469Z,885.62
2018-08-13T08:55:08.465Z,885.59
2018-08-13T08:56:08.457Z,885.64
2018-08-13T08:57:08.461Z,885.62
2018-08-13T08:58:08.447Z,885.59
2018-08-13T08:59:08.440Z,885.59
2018-08-13T09:00:08.441Z,885.56
2018-08-13T09:01:08.430Z,885.57
2018-08-13T09:02:08.425Z,885.50
2018-08-13T09:03:08.419Z,885.48
2018-08-13T09:04:08.416Z,885.46
2018-08-13T09:05:08.404Z,885.42
2018-08-13T09:06:08.406Z,885.47
2018-08-13T09:07:08.397Z,885.43
2018-08-13T09:08:08.389Z,885.51
2018-08-13T09:09:08.391Z,885.49
2018-08-13T09:10:08.382Z,885.51
2018-08-13T09:11:08.374Z,885.48
2018-08-13T09:12:08.370Z,885.52
2018-08-13T09:13:08.363Z,885.51
2018-08-13T09:14:08.397Z,885.51
2018-08-13T09:15:08.350Z,885.51
2018-08-13T09:16:08.346Z,885.50
2018-08-13T09:17:08.339Z,885.47
2018-08-13T09:18:08.337Z,885.54
2018-08-13T09:19:08.389Z,885.55
2018-08-13T09:20:08.323Z,885.49
2018-08-13T09:21:08.319Z,885.50
2018-08-13T09:22:08.314Z,885.49
2018-08-13T09:23:08.305Z,885.48
2018-08-13T09:24:08.306Z,885.50
2018-08-13T09:25:08.300Z,885.46
2018-08-13T09:26:08.292Z,885.44
2018-08-13T09:27:08.287Z,885.42
2018-08-13T09:28:08.287Z,885.44
2018-08-13T09:29:08.275Z,885.43
2018-08-13T09:30:08.278Z,885.43
2018-08-13T09:31:08.264Z,885.41
2018-08-13T09:32:08.260Z,885.46
2018-08-13T09:33:08.260Z,885.46
2018-08-13T09:34:08.249Z,885.46
2018-08-13T09:35:08.252Z,885.45
2018-08-13T09:36:08.237Z,885.50
2018-08-13T09:37:08.233Z,885.41
2018-08-13T09:38:08.229Z,885.44
2018-08-13T09:39:08.225Z,885.38
2018-08-13T09:40:08.215Z,885.41
2018-08-13T09:41:08.219Z,885.44
2018-08-13T09:42:08.204Z,885.41
2018-08-13T09:43:08.204Z,885.43
2018-08-13T09:44:08.196Z,885.42
2018-08-13T09:45:08.183Z,885.35
2018-08-13T09:46:08.180Z,885.40
2018-08-13T09:47:08.173Z,885.43
2018-08-13T09:48:08.239Z,885.43
2018-08-13T09:49:08.172Z,885.45
2018-08-13T09:50:08.157Z,885.40
2018-08-13T09:51:08.156Z,885.40
2018-08-13T09:52:08.153Z,885.37
2018-08-13T09:53:08.146Z,885.32
2018-08-13T09:54:08.138Z,885.31
2018-08-13T09:55:08.129Z,885.24
2018-08-13T09:56:08.125Z,885.24
2018-08-13T09:57:08.120Z,885.26
2018-08-13T09:58:08.117Z,885.26
2018-08-13T09:59:08.111Z,885.27
2018-08-13T10:00:08.115Z,885.24
2018-08-13T10:01:08.099Z,885.24
2018-08-13T10:02:08.092Z,885.24
2018-08-13T10:03:08.089Z,885.22
2018-08-13T10:04:08.080Z,885.23
2018-08-13T10:05:08.079Z,885.24
2018-08-13T10:06:08.077Z,885.28
2018-08-13T10:07:08.071Z,885.27
2018-08-13T10:08:08.061Z,885.29
2018-08-13T10:09:08.059Z,885.24
2018-08-13T10:10:08.055Z,885.28
2018-08-13T10:11:08.047Z,885.23
2018-08-13T10:12:08.042Z,885.22
2018-08-13T10:13:08.032Z,885.25
2018-08-13T10:14:08.026Z,885.28
2018-08-13T10:15:08.024Z,885.27
2018-08-13T10:16:08.017Z,885.22
2018-08-13T10:17:08.017Z,885.19
2018-08-13T10:18:08.003Z,885.18
2018-08-13T10:19:08.001Z,885.15
2018-08-13T10:20:07.993Z,885.17
2018-08-13T10:21:07.989Z,885.13
2018-08-13T10:22:07.986Z,885.18
2018-08-13T10:23:07.978Z,885.14
2018-08-13T10:24:07.973Z,885.14
2018-08-13T10:25:07.968Z,885.14
2018-08-13T10:26:07.959Z,885.14
2018-08-13T10:27:07.956Z,885.14
2018-08-13T10:28:07.951Z,885.12
2018-08-13T10:29:07.942Z,885.15
2018-08-13T10:30:07.943Z,885.15
2018-08-13T10:31:07.940Z,885.10
2018-08-13T10:32:07.929Z,885.13
2018-08-13T10:33:07.921Z,885.11
2018-08-13T10:34:07.917Z,885.14
2018-08-13T10:35:07.911Z,885.16
2018-08-13T10:36:07.908Z,885.19
2018-08-13T10:37:07.903Z,885.23
2018-08-13T10:38:07.898Z,885.27
2018-08-13T10:39:07.891Z,885.32
2018-08-13T10:40:07.883Z,885.37
2018-08-13T10:41:07.885Z,885.41
2018-08-13T10:42:07.873Z,885.42
2018-08-13T10:43:07.867Z,885.47
2018-08-13T10:44:07.862Z,885.61
2018-08-13T10:45:07.851Z,885.64
2018-08-13T10:46:07.848Z,885.62
2018-08-13T10:47:07.845Z,885.64
2018-08-13T10:48:07.837Z,885.69
2018-08-13T10:49:07.829Z,885.71
2018-08-13T10:50:07.825Z,885.78
2018-08-13T10:51:07.820Z,885.77
2018-08-13T10:52:07.821Z,885.82
2018-08-13T10:53:07.809Z,885.85
2018-08-13T10:54:07.805Z,885.94
2018-08-13T10:55:07.799Z,885.91
2018-08-13T10:56:07.833Z,885.89
2018-08-13T10:57:07.790Z,886.01
2018-08-13T10:58:07.778Z,886.02
2018-08-13T10:59:07.776Z,885.95
2018-08-13T11:00:07.778Z,885.98
2018-08-13T11:01:07.786Z,886.02
2018-08-13T11:02:07.751Z,885.95
2018-08-13T11:03:07.819Z,885.98
2018-08-13T11:04:07.740Z,885.99
2018-08-13T11:05:07.739Z,886.06
2018-08-13T11:06:07.733Z,886.01
2018-08-13T11:07:07.726Z,885.89
2018-08-13T11:08:07.717Z,886.05
2018-08-13T11:09:07.708Z,886.00
2018-08-13T11:10:07.708Z,886.06
2018-08-13T11:11:07.714Z,885.98
2018-08-13T11:12:07.694Z,885.99
2018-08-13T11:13:07.687Z,885.99
2018-08-13T11:14:07.685Z,886.09
2018-08-13T11:15:07.681Z,886.09
2018-08-13T11:16:07.680Z,886.04
2018-08-13T11:17:07.667Z,886.19
2018-08-13T11:18:07.661Z,885.99
2018-08-13T11:19:07.652Z,886.10
2018-08-13T11:20:07.652Z,886.04
2018-08-13T11:21:07.647Z,886.01
2018-08-13T11:22:07.640Z,885.90
2018-08-13T11:23:07.634Z,885.98
2018-08-13T11:24:07.622Z,886.03
2018-08-13T11:25:07.610Z,885.87
2018-08-13T11:26:07.615Z,885.91
2018-08-13T11:27:07.605Z,885.85
2018-08-13T11:28:07.597Z,885.81
2018-08-13T11:29:07.588Z,885.71
2018-08-13T11:30:07.583Z,885.72
2018-08-13T11:31:07.622Z,885.73
2018-08-13T11:32:07.569Z,885.68
2018-08-13T11:33:07.567Z,885.71
2018-08-13T11:34:07.563Z,885.65
2018-08-13T11:35:07.553Z,885.63
2018-08-13T11:36:07.543Z,885.61
2018-08-13T11:37:07.541Z,885.57
2018-08-13T11:38:07.527Z,885.60
2018-08-13T11:39:07.527Z,885.58
2018-08-13T11:40:07.521Z,885.61
2018-08-13T11:41:07.515Z,885.64
2018-08-13T11:42:07.518Z,885.59
2018-08-13T11:43:07.506Z,885.66
2018-08-13T11:44:07.495Z,885.69
2018-08-13T11:45:07.487Z,885.68
2018-08-13T11:46:07.483Z,885.67
2018-08-13T11:47:07.485Z,885.64
2018-08-13T11:48:07.470Z,885.70
2018-08-13T11:49:07.462Z,885.69
2018-08-13T11:50:07.454Z,885.64
2018-08-13T11:51:07.446Z,885.58
2018-08-13T11:52:07.442Z,885.60
2018-08-13T11:53:07.438Z,885.59
2018-08-13T11:54:07.435Z,885.56
2018-08-13T11:55:07.432Z,885.53
2018-08-13T11:56:07.421Z,885.54
2018-08-13T11:57:07.418Z,885.54
2018-08-13T11:58:07.416Z,885.50
2018-08-13T11:59:07.410Z,885.48
2018-08-13T12:00:07.400Z,885.50
2018-08-13T12:01:07.436Z,885.49
2018-08-13T12:02:07.451Z,885.49
2018-08-13T12:03:07.376Z,885.46
2018-08-13T12:04:07.376Z,885.47
2018-08-13T12:05:07.364Z,885.47
2018-08-13T12:06:07.373Z,885.44
2018-08-13T12:07:07.357Z,885.40
2018-08-13T12:08:07.351Z,885.40
2018-08-13T12:09:07.346Z,885.38
2018-08-13T12:10:07.340Z,885.36
2018-08-13T12:11:07.335Z,885.33
2018-08-13T12:12:07.333Z,885.30
2018-08-13T12:13:07.323Z,885.33
2018-08-13T12:14:07.401Z,885.31
2018-08-13T12:15:07.313Z,885.33
2018-08-13T12:16:07.306Z,885.30
2018-08-13T12:17:07.294Z,885.31
2018-08-13T12:18:07.294Z,885.30
2018-08-13T12:19:07.285Z,885.32
2018-08-13T12:20:07.282Z,885.34
2018-08-13T12:21:07.276Z,885.29
2018-08-13T12:22:07.274Z,885.32
2018-08-13T12:23:07.266Z,885.28
2018-08-13T12:24:07.258Z,885.31
2018-08-13T12:25:07.260Z,885.31
2018-08-13T12:26:07.249Z,885.33
2018-08-13T12:27:07.243Z,885.33
2018-08-13T12:28:07.236Z,885.38